Time;durP1;ratioP1;P1;durP2;ratioP2;P2;SDS_P1;SDS_P2;PMS_P1;PMS_P2;Temp;Humidity;BMP_temperature;BMP_pressure;BME280_temperature;BME280_humidity;BME280_pressure;Samples;Min_cycle;Max_cycle;Signal;HPM_P1;HPM_P2
2022/07/13 00:02:23;;;;;;;1.30;1.10;;;;;;;20.66;39.79;97336.59;4801123;29;20206;-69
2022/07/13 00:04:49;;;;;;;1.47;1.00;;;;;;;20.69;39.78;97338.94;4785077;29;20623;-69
2022/07/13 00:07:17;;;;;;;1.80;1.40;;;;;;;20.65;39.20;97326.19;4800936;29;20301;-69
2022/07/13 00:09:44;;;;;;;1.50;1.23;;;;;;;20.70;39.88;97326.63;4801057;29;20211;-69
2022/07/13 00:12:11;;;;;;;3.07;1.00;;;;;;;20.77;39.42;97323.38;4801029;29;20267;-70
2022/07/13 00:14:38;;;;;;;1.23;1.13;;;;;;;20.89;39.27;97329.44;4800940;29;20210;-70
2022/07/13 00:17:05;;;;;;;1.23;1.13;;;;;;;20.87;39.24;97324.31;4801110;29;20311;-69
2022/07/13 00:19:32;;;;;;;1.63;1.20;;;;;;;20.92;39.58;97329.16;4800995;29;20204;-70
2022/07/13 00:21:59;;;;;;;1.20;1.10;;;;;;;20.77;39.42;97331.25;4801416;29;20207;-69
2022/07/13 00:24:26;;;;;;;1.57;1.20;;;;;;;20.80;39.82;97331.03;4800733;29;20259;-69
2022/07/13 00:26:53;;;;;;;2.73;1.20;;;;;;;20.81;39.48;97324.78;4800917;29;20737;-69
2022/07/13 00:29:20;;;;;;;6.20;1.57;;;;;;;20.84;39.75;97318.44;4800852;29;20684;-69
2022/07/13 00:31:47;;;;;;;4.03;1.20;;;;;;;20.86;39.59;97322.63;4800893;29;20636;-69
2022/07/13 00:34:14;;;;;;;1.57;1.10;;;;;;;20.79;39.69;97316.16;4800789;29;20237;-69
2022/07/13 00:36:41;;;;;;;1.93;1.00;;;;;;;20.77;39.81;97331.25;4800440;29;20199;-69
2022/07/13 00:39:08;;;;;;;1.97;1.30;;;;;;;20.70;40.04;97318.72;4800983;29;20195;-69
2022/07/13 00:41:35;;;;;;;1.00;0.90;;;;;;;20.73;39.75;97324.56;4800700;29;20202;-69
2022/07/13 00:44:09;;;;;;;1.60;1.20;;;;;;;20.69;39.87;97312.63;4800938;29;20214;-71
2022/07/13 00:46:37;;;;;;;1.23;0.93;;;;;;;20.65;40.14;97324.38;4799219;29;20257;-69
2022/07/13 00:49:04;;;;;;;1.80;1.00;;;;;;;20.54;40.32;97311.28;4800550;29;20802;-69
2022/07/13 00:51:31;;;;;;;1.37;1.10;;;;;;;20.53;40.25;97325.38;4784378;29;20210;-70
2022/07/13 00:54:00;;;;;;;1.53;1.10;;;;;;;20.42;40.17;97321.94;4800315;29;20195;-69
2022/07/13 00:56:27;;;;;;;1.10;1.00;;;;;;;20.50;40.35;97330.06;4784659;29;20210;-69
2022/07/13 00:58:55;;;;;;;1.47;1.13;;;;;;;20.41;40.15;97325.53;4784231;29;20251;-70
2022/07/13 01:01:22;;;;;;;1.57;1.10;;;;;;;20.47;40.46;97319.75;4800502;29;20208;-69
2022/07/13 01:03:49;;;;;;;1.07;0.97;;;;;;;20.47;40.24;97322.38;4800095;29;20207;-70
2022/07/13 01:06:17;;;;;;;1.00;0.90;;;;;;;20.35;40.54;97320.75;4800110;29;20984;-70
2022/07/13 01:08:46;;;;;;;1.60;1.20;;;;;;;20.42;40.42;97328.06;4800381;29;21250;-69
2022/07/13 01:11:13;;;;;;;1.17;1.00;;;;;;;20.40;40.71;97318.59;4800103;29;20275;-69
2022/07/13 01:13:40;;;;;;;1.37;1.10;;;;;;;20.41;40.71;97321.09;4800568;29;20234;-70
2022/07/13 01:16:11;;;;;;;1.83;0.90;;;;;;;20.36;40.98;97318.00;4799997;29;20246;-70
2022/07/13 01:18:38;;;;;;;1.87;1.00;;;;;;;20.23;40.92;97317.31;4800276;29;20266;-70
2022/07/13 01:21:05;;;;;;;1.10;1.00;;;;;;;20.13;41.17;97316.34;4799997;29;20233;-70
2022/07/13 01:23:34;;;;;;;1.43;1.00;;;;;;;20.13;41.41;97316.34;4783921;29;20596;-70
2022/07/13 01:26:02;;;;;;;2.10;0.97;;;;;;;19.94;41.15;97280.16;4799974;29;20246;-70
2022/07/13 01:28:29;;;;;;;3.03;1.00;;;;;;;20.14;41.16;97299.59;4799846;29;20259;-70
2022/07/13 01:30:56;;;;;;;1.00;0.90;;;;;;;20.15;41.22;97299.47;4783945;29;20316;-69
2022/07/13 01:33:23;;;;;;;2.70;0.97;;;;;;;20.17;40.78;97297.56;4799847;29;20221;-69
2022/07/13 01:35:51;;;;;;;2.93;1.30;;;;;;;20.24;40.81;97303.19;4799858;29;20707;-69
2022/07/13 01:38:20;;;;;;;2.80;1.77;;;;;;;20.27;40.89;97292.44;4799866;29;20298;-69
2022/07/13 01:40:47;;;;;;;2.73;1.53;;;;;;;20.09;41.60;97286.00;4799937;29;20241;-70
2022/07/13 01:43:15;;;;;;;2.17;1.10;;;;;;;19.88;42.00;97298.22;4799875;29;20210;-71
2022/07/13 01:45:45;;;;;;;2.50;1.53;;;;;;;19.97;42.29;97290.41;4783310;29;20794;-70
2022/07/13 01:48:12;;;;;;;1.40;1.23;;;;;;;19.99;41.90;97292.94;4784109;29;20206;-70
2022/07/13 01:50:39;;;;;;;2.50;1.27;;;;;;;20.02;42.09;97288.28;4799487;29;20206;-69
2022/07/13 01:53:06;;;;;;;3.60;1.40;;;;;;;20.06;42.30;97288.84;4799909;29;20233;-70
2022/07/13 01:55:33;;;;;;;2.37;1.57;;;;;;;20.03;42.40;97297.81;4799753;29;20240;-71
2022/07/13 01:58:01;;;;;;;1.60;1.50;;;;;;;19.97;42.24;97281.72;4783420;29;20261;-69
2022/07/13 02:00:29;;;;;;;1.93;1.30;;;;;;;19.98;42.66;97293.91;4798597;29;20203;-69
2022/07/13 02:02:56;;;;;;;2.30;1.40;;;;;;;19.77;42.68;97290.31;4799424;29;20211;-69
2022/07/13 02:05:26;;;;;;;1.67;1.30;;;;;;;19.72;42.85;97285.41;4783811;29;20238;-70
2022/07/13 02:07:54;;;;;;;3.17;1.30;;;;;;;19.65;43.03;97286.88;4783159;29;20677;-69
2022/07/13 02:10:34;;;;;;;2.33;1.30;;;;;;;19.62;42.52;97265.25;4783132;29;20221;-69
2022/07/13 02:13:03;;;;;;;4.37;1.50;;;;;;;19.63;42.67;97287.94;4799622;29;20244;-71
2022/07/13 02:15:31;;;;;;;1.47;1.30;;;;;;;19.72;42.71;97274.09;4783285;29;20217;-69
2022/07/13 02:17:58;;;;;;;1.67;1.37;;;;;;;19.74;43.04;97285.31;4798524;29;20906;-69
2022/07/13 02:20:25;;;;;;;1.87;1.37;;;;;;;19.66;42.74;97277.19;4783082;29;20213;-69
2022/07/13 02:22:52;;;;;;;2.40;1.20;;;;;;;19.74;42.52;97290.56;4799568;29;20574;-69
2022/07/13 02:25:20;;;;;;;2.57;1.37;;;;;;;19.81;42.61;97282.06;4782999;29;20306;-69
2022/07/13 02:27:47;;;;;;;1.10;1.00;;;;;;;19.96;41.56;97280.03;4783024;29;20763;-69
2022/07/13 02:30:15;;;;;;;0.80;0.80;;;;;;;20.04;41.87;97289.00;4783150;29;20225;-69
2022/07/13 02:32:44;;;;;;;1.63;0.90;;;;;;;19.97;41.74;97298.31;4783088;29;20211;-69
2022/07/13 02:35:12;;;;;;;3.23;1.40;;;;;;;19.88;41.91;97296.44;4803167;29;20225;-69
2022/07/13 02:37:40;;;;;;;1.20;0.90;;;;;;;19.94;41.60;97293.31;4802459;29;20218;-69
2022/07/13 02:40:12;;;;;;;2.03;1.00;;;;;;;19.97;41.71;97298.31;4786779;29;20210;-69
2022/07/13 02:42:46;;;;;;;1.60;1.00;;;;;;;19.92;41.77;97299.63;4802758;29;20233;-69
2022/07/13 02:45:13;;;;;;;11.03;2.10;;;;;;;19.88;42.32;97304.31;4786518;29;20205;-68
2022/07/13 02:47:40;;;;;;;2.10;1.40;;;;;;;19.82;42.62;97298.69;4786615;29;20214;-69
2022/07/13 02:50:09;;;;;;;2.23;1.20;;;;;;;19.77;42.89;97298.22;4786174;29;20653;-70
2022/07/13 02:52:37;;;;;;;1.10;1.00;;;;;;;19.81;42.66;97295.22;4786683;29;20206;-70
2022/07/13 02:55:05;;;;;;;1.07;0.97;;;;;;;19.77;42.60;97298.22;4802602;29;20606;-70
2022/07/13 02:57:32;;;;;;;2.40;1.10;;;;;;;19.87;42.51;97293.91;4801356;29;20231;-70
2022/07/13 03:00:04;;;;;;;2.07;0.90;;;;;;;19.86;42.58;97300.97;4786371;29;20267;-70
2022/07/13 03:02:31;;;;;;;2.27;1.30;;;;;;;19.91;42.36;97300.56;4802406;29;20214;-70
2022/07/13 03:04:58;;;;;;;3.20;1.30;;;;;;;19.94;42.36;97292.47;4786556;29;20210;-69
2022/07/13 03:07:26;;;;;;;1.37;1.23;;;;;;;20.03;42.35;97291.75;4786612;29;20222;-70
2022/07/13 03:09:53;;;;;;;2.63;1.90;;;;;;;20.04;42.40;97285.53;4803451;29;20215;-70
2022/07/13 03:12:25;;;;;;;1.30;1.10;;;;;;;19.97;42.39;97279.09;4786331;29;20209;-70
2022/07/13 03:14:52;;;;;;;3.87;1.20;;;;;;;20.04;42.56;97306.56;4786300;29;20213;-70
2022/07/13 03:17:19;;;;;;;3.87;1.20;;;;;;;20.01;43.23;97297.09;4784051;29;20235;-70
2022/07/13 03:19:47;;;;;;;4.30;1.27;;;;;;;20.17;42.62;97300.19;4768094;30;20687;-69
2022/07/13 03:22:14;;;;;;;1.57;1.37;;;;;;;19.95;43.08;97302.84;4768040;30;20673;-69
2022/07/13 03:24:42;;;;;;;5.33;1.60;;;;;;;19.79;43.03;97286.63;4767740;29;20215;-70
2022/07/13 03:27:10;;;;;;;2.33;1.20;;;;;;;19.59;43.79;97297.00;4784231;29;20786;-70
2022/07/13 03:29:37;;;;;;;2.73;1.40;;;;;;;19.55;43.67;97293.78;4762911;29;20597;-69
2022/07/13 03:32:05;;;;;;;2.70;1.07;;;;;;;19.43;44.46;97294.75;4763794;29;20259;-69
2022/07/13 03:34:32;;;;;;;3.00;1.30;;;;;;;19.27;44.89;97300.28;4783784;30;20275;-69
2022/07/13 03:36:59;;;;;;;3.40;1.60;;;;;;;19.10;45.28;97297.28;4782605;29;20238;-69
2022/07/13 03:39:27;;;;;;;2.53;1.30;;;;;;;19.01;45.77;97304.06;4783961;29;20207;-70
2022/07/13 03:41:56;;;;;;;2.87;1.30;;;;;;;18.96;45.91;97300.94;4767605;30;20212;-69
2022/07/13 03:44:23;;;;;;;2.87;1.33;;;;;;;18.98;45.93;97309.53;4767278;29;20210;-70
2022/07/13 03:46:50;;;;;;;1.37;1.27;;;;;;;19.10;45.90;97313.84;4783705;29;20690;-69
2022/07/13 03:49:17;;;;;;;6.07;1.90;;;;;;;19.11;45.54;97310.28;4783748;29;20226;-70
2022/07/13 03:51:46;;;;;;;2.80;1.30;;;;;;;19.24;45.78;97311.03;4783903;29;20272;-69
2022/07/13 03:54:14;;;;;;;4.73;1.40;;;;;;;19.75;44.29;97306.22;4767439;30;20262;-69
2022/07/13 03:56:41;;;;;;;3.53;1.50;;;;;;;20.37;42.81;97306.53;4766010;29;20222;-69
2022/07/13 03:59:09;;;;;;;1.87;1.33;;;;;;;20.80;42.34;97301.22;4775632;29;20219;-69
2022/07/13 04:01:37;;;;;;;2.03;1.20;;;;;;;21.20;41.29;97310.16;4779657;29;20231;-69
2022/07/13 04:04:05;;;;;;;1.60;1.20;;;;;;;21.61;40.31;97301.38;4763416;30;20215;-70
2022/07/13 04:06:32;;;;;;;4.63;1.47;;;;;;;22.09;39.63;97304.22;4760641;29;20820;-70
2022/07/13 04:09:01;;;;;;;6.53;2.20;;;;;;;22.33;39.51;97300.25;4767428;29;20287;-70
2022/07/13 04:11:28;;;;;;;5.27;2.47;;;;;;;22.71;39.39;97312.69;4783002;29;20222;-71
2022/07/13 04:13:56;;;;;;;7.57;2.57;;;;;;;23.13;39.36;97318.53;4767110;30;20304;-71
2022/07/13 04:16:23;;;;;;;5.53;2.10;;;;;;;23.44;37.62;97306.84;4771827;29;20237;-71
2022/07/13 04:18:50;;;;;;;11.20;2.80;;;;;;;23.78;37.14;97315.91;4785031;29;20256;-70
2022/07/13 04:21:18;;;;;;;6.60;2.20;;;;;;;24.13;36.51;97318.72;4784700;29;20303;-70
2022/07/13 04:23:45;;;;;;;5.67;1.90;;;;;;;24.05;37.41;97315.97;4784805;29;20651;-70
2022/07/13 04:26:12;;;;;;;4.73;2.10;;;;;;;23.75;37.04;97321.50;4784593;29;20235;-70
2022/07/13 04:28:39;;;;;;;6.77;2.50;;;;;;;23.86;37.29;97313.41;4784919;29;20201;-70
2022/07/13 04:31:10;;;;;;;6.57;2.73;;;;;;;24.16;36.66;97315.78;4785370;29;20212;-70
2022/07/13 04:33:41;;;;;;;6.40;2.20;;;;;;;24.24;35.81;97313.22;4784246;29;20205;-70
2022/07/13 04:36:10;;;;;;;4.97;2.10;;;;;;;24.23;37.31;97323.97;4799507;29;20220;-70
2022/07/13 04:38:38;;;;;;;7.87;2.17;;;;;;;24.27;36.37;97296.22;4800580;29;20694;-69
2022/07/13 04:41:06;;;;;;;5.73;2.63;;;;;;;24.47;37.16;97318.94;4784640;29;20236;-71
2022/07/13 04:43:36;;;;;;;4.33;1.80;;;;;;;24.21;36.62;97329.41;4784353;29;20220;-70
2022/07/13 04:46:05;;;;;;;2.57;1.30;;;;;;;23.84;37.65;97319.81;4769139;29;20694;-69
2022/07/13 04:48:33;;;;;;;3.50;1.50;;;;;;;23.79;37.25;97328.16;4799740;29;20197;-71
2022/07/13 04:51:00;;;;;;;2.93;1.20;;;;;;;23.52;37.19;97336.03;4784332;29;20205;-71
2022/07/13 04:53:28;;;;;;;1.27;1.17;;;;;;;23.20;36.82;97336.34;4784289;29;20215;-70
2022/07/13 04:55:56;;;;;;;3.77;1.40;;;;;;;23.30;37.23;97331.03;4783615;29;20210;-71
2022/07/13 04:58:23;;;;;;;2.83;1.20;;;;;;;23.48;37.36;97331.16;4784027;29;20244;-71
2022/07/13 05:00:51;;;;;;;2.10;1.57;;;;;;;23.22;37.10;97338.84;4800728;29;20668;-71
2022/07/13 05:03:38;;;;;;;2.57;1.33;;;;;;;22.88;37.90;97334.94;4798553;29;20607;-71
2022/07/13 05:06:05;;;;;;;4.30;1.43;;;;;;;23.01;37.87;97332.88;4784352;29;20250;-70
2022/07/13 05:08:32;;;;;;;3.83;1.40;;;;;;;22.84;38.71;97342.31;4783821;29;20206;-70
2022/07/13 05:11:00;;;;;;;2.80;1.00;;;;;;;22.19;39.19;97342.88;4783847;29;20303;-70
2022/07/13 05:13:28;;;;;;;2.97;1.13;;;;;;;22.28;39.16;97349.97;4798731;29;20218;-70
2022/07/13 05:15:58;;;;;;;4.20;1.30;;;;;;;22.55;38.87;97338.78;4783593;29;20205;-70
2022/07/13 05:18:26;;;;;;;3.90;1.30;;;;;;;22.82;38.13;97343.41;4784170;29;20229;-70
2022/07/13 05:20:57;;;;;;;3.30;1.50;;;;;;;23.11;38.54;97331.06;4783858;29;20270;-70
2022/07/13 05:23:25;;;;;;;2.13;1.30;;;;;;;22.96;38.30;97338.56;4783531;29;20872;-70
2022/07/13 05:25:52;;;;;;;1.17;1.00;;;;;;;22.88;38.36;97341.06;4783388;29;20213;-70
2022/07/13 05:28:19;;;;;;;1.80;1.30;;;;;;;22.82;38.67;97332.84;4799976;29;20703;-71
2022/07/13 05:30:47;;;;;;;4.80;1.23;;;;;;;22.97;38.20;97331.47;4798493;29;20696;-70
2022/07/13 05:33:16;;;;;;;1.27;1.00;;;;;;;22.65;38.44;97343.13;4798343;29;20201;-71
2022/07/13 05:35:44;;;;;;;1.57;1.00;;;;;;;22.59;38.93;97330.47;4783667;29;20217;-70
2022/07/13 05:38:12;;;;;;;3.47;1.47;;;;;;;22.77;39.01;97343.00;4799680;29;20209;-70
2022/07/13 05:40:39;;;;;;;1.40;1.20;;;;;;;23.06;38.38;97336.75;4799964;29;20236;-71
2022/07/13 05:43:13;;;;;;;3.27;1.33;;;;;;;22.99;38.93;97340.09;4783162;29;20240;-71
2022/07/13 05:45:40;;;;;;;1.63;1.00;;;;;;;23.08;37.99;97341.91;4782988;29;20602;-71
2022/07/13 05:48:08;;;;;;;2.07;1.10;;;;;;;23.22;38.18;97336.19;4799793;29;20237;-71
2022/07/13 05:50:39;;;;;;;2.77;1.20;;;;;;;23.34;37.92;97327.16;4783281;29;20240;-71
2022/07/13 05:53:06;;;;;;;2.03;1.00;;;;;;;23.45;37.93;97343.69;4768706;29;20569;-71
2022/07/13 05:55:34;;;;;;;1.20;1.10;;;;;;;23.56;37.75;97333.94;4783037;29;20633;-71
2022/07/13 05:58:01;;;;;;;0.80;0.80;;;;;;;23.27;37.40;97344.53;4799520;29;20229;-70
2022/07/13 06:00:28;;;;;;;3.00;1.57;;;;;;;23.34;37.87;97340.38;4799375;29;20616;-71
2022/07/13 06:02:55;;;;;;;1.70;1.07;;;;;;;23.56;38.03;97339.22;4799490;29;20698;-71
2022/07/13 06:05:23;;;;;;;1.53;1.10;;;;;;;23.20;37.82;97325.78;4799595;29;20208;-71
2022/07/13 06:07:50;;;;;;;2.00;1.10;;;;;;;23.43;38.14;97339.56;4800688;29;20238;-71
2022/07/13 06:10:17;;;;;;;2.23;1.10;;;;;;;23.64;37.38;97320.84;4803243;29;20668;-71
2022/07/13 06:12:44;;;;;;;2.30;1.47;;;;;;;23.61;37.69;97332.53;4802657;29;20272;-71
2022/07/13 06:15:11;;;;;;;3.13;1.10;;;;;;;23.78;36.35;97323.84;4802943;29;20706;-71
2022/07/13 06:17:38;;;;;;;3.93;1.23;;;;;;;23.75;37.34;97310.91;4803065;29;20307;-70
2022/07/13 06:20:06;;;;;;;4.07;1.43;;;;;;;23.94;37.23;97332.03;4802630;29;20206;-71
2022/07/13 06:22:33;;;;;;;1.63;1.30;;;;;;;23.98;36.81;97324.63;4802624;29;20271;-71
2022/07/13 06:25:03;;;;;;;2.20;1.03;;;;;;;23.84;37.53;97330.38;4802409;29;20265;-70
2022/07/13 06:27:30;;;;;;;1.63;1.07;;;;;;;23.86;36.44;97320.50;4802816;29;20234;-71
2022/07/13 06:29:58;;;;;;;1.90;1.10;;;;;;;24.05;36.56;97328.38;4802160;29;20213;-70
2022/07/13 06:32:25;;;;;;;1.10;1.00;;;;;;;23.98;35.10;97328.09;4786235;29;20286;-70
2022/07/13 06:34:52;;;;;;;3.70;1.50;;;;;;;24.21;35.23;97334.69;4802380;29;20585;-70
2022/07/13 06:37:26;;;;;;;1.87;1.20;;;;;;;24.35;35.62;97324.59;4802089;29;20208;-72
2022/07/13 06:40:12;;;;;;;2.57;1.63;;;;;;;24.00;37.08;97346.47;4802847;29;20356;-69
2022/07/13 06:42:43;;;;;;;2.70;1.03;;;;;;;23.74;37.16;97345.47;4802211;29;20744;-70
2022/07/13 06:45:11;;;;;;;1.70;1.10;;;;;;;23.95;36.16;97338.97;4802245;29;20222;-70
2022/07/13 06:47:39;;;;;;;1.17;1.07;;;;;;;24.13;36.32;97342.53;4801685;29;20244;-70
2022/07/13 06:50:08;;;;;;;1.53;0.90;;;;;;;24.18;35.83;97344.75;4801728;29;20210;-71
2022/07/13 06:52:37;;;;;;;1.13;1.07;;;;;;;23.93;36.17;97348.84;4801777;29;20251;-71
2022/07/13 06:55:04;;;;;;;1.17;0.90;;;;;;;23.43;37.12;97336.91;4801843;29;20265;-71
2022/07/13 06:57:31;;;;;;;1.40;1.30;;;;;;;23.58;36.06;97335.47;4802392;29;20217;-72
2022/07/13 06:59:59;;;;;;;3.23;1.33;;;;;;;23.60;36.86;97333.50;4801916;29;20691;-71
2022/07/13 07:02:26;;;;;;;2.17;1.20;;;;;;;24.18;35.28;97337.66;4801775;29;20210;-71
2022/07/13 07:04:54;;;;;;;1.37;1.10;;;;;;;24.07;35.80;97335.19;4801683;29;20228;-71
2022/07/13 07:07:21;;;;;;;1.70;1.20;;;;;;;24.27;35.28;97333.28;4801862;29;20234;-70
2022/07/13 07:09:49;;;;;;;1.17;1.07;;;;;;;24.19;35.38;97331.34;4801861;29;20207;-70
2022/07/13 07:12:16;;;;;;;1.90;1.03;;;;;;;23.87;35.40;97317.69;4801650;29;20705;-70
2022/07/13 07:14:43;;;;;;;2.40;1.17;;;;;;;23.91;35.93;97340.22;4802203;29;20208;-70
2022/07/13 07:17:10;;;;;;;3.03;1.00;;;;;;;23.95;34.61;97336.31;4801527;29;20250;-70
2022/07/13 07:19:38;;;;;;;1.53;1.07;;;;;;;24.12;33.78;97318.88;4803231;29;20278;-71
2022/07/13 07:22:05;;;;;;;2.70;0.80;;;;;;;24.32;35.25;97336.31;4801495;29;20302;-71
2022/07/13 07:24:32;;;;;;;3.30;0.97;;;;;;;24.25;34.22;97346.66;4801547;29;20207;-71
2022/07/13 07:26:59;;;;;;;1.50;1.10;;;;;;;24.18;34.19;97337.66;4801457;29;20238;-71
2022/07/13 07:29:26;;;;;;;2.53;1.00;;;;;;;24.30;34.49;97348.06;4801727;29;20210;-71
2022/07/13 07:31:53;;;;;;;1.10;0.80;;;;;;;24.00;34.15;97336.72;4801057;29;20683;-71
2022/07/13 07:34:26;;;;;;;1.40;0.80;;;;;;;23.74;34.87;97340.97;4800631;29;20732;-71
2022/07/13 07:36:53;;;;;;;3.73;1.00;;;;;;;23.83;35.69;97339.28;4801048;29;20223;-71
2022/07/13 07:39:20;;;;;;;1.10;0.93;;;;;;;24.04;34.70;97347.88;4784712;29;20209;-70
2022/07/13 07:41:47;;;;;;;1.37;0.90;;;;;;;23.98;34.73;97354.56;4801268;29;20291;-71
2022/07/13 07:44:14;;;;;;;2.23;1.10;;;;;;;24.08;34.82;97350.09;4801021;29;20290;-71
2022/07/13 07:46:41;;;;;;;1.23;1.07;;;;;;;24.18;34.34;97344.75;4801132;29;20673;-71
2022/07/13 07:49:08;;;;;;;1.33;0.90;;;;;;;23.97;35.25;97362.63;4801420;29;20328;-71
2022/07/13 07:51:35;;;;;;;2.83;1.13;;;;;;;23.95;34.04;97343.41;4800841;29;20221;-70
2022/07/13 07:54:22;;;;;;;1.13;0.80;;;;;;;24.28;34.16;97348.19;4800822;29;20231;-71
2022/07/13 07:56:49;;;;;;;1.30;1.00;;;;;;;24.48;34.65;97364.81;4800633;29;20203;-71
2022/07/13 07:59:16;;;;;;;1.83;0.80;;;;;;;24.50;32.43;97345.16;4800902;29;20292;-71
2022/07/13 08:01:44;;;;;;;1.30;1.20;;;;;;;24.55;33.08;97352.63;4800843;29;20217;-71
2022/07/13 08:04:11;;;;;;;1.10;0.90;;;;;;;24.33;33.98;97348.59;4800440;29;20233;-72
2022/07/13 08:06:38;;;;;;;1.70;1.00;;;;;;;24.29;34.92;97356.97;4800790;29;20209;-71
2022/07/13 08:09:05;;;;;;;1.53;1.37;;;;;;;24.21;33.98;97332.03;4800310;29;20216;-70
2022/07/13 08:11:32;;;;;;;5.07;1.67;;;;;;;24.71;33.62;97350.19;4800279;29;20296;-70
2022/07/13 08:13:59;;;;;;;2.03;1.50;;;;;;;24.73;33.00;97356.16;4800246;29;20621;-71
2022/07/13 08:16:27;;;;;;;2.63;1.40;;;;;;;24.84;33.05;97342.69;4800047;29;20768;-70
2022/07/13 08:18:54;;;;;;;3.03;1.33;;;;;;;24.88;32.93;97341.41;4800790;29;20209;-71
2022/07/13 08:21:41;;;;;;;3.33;1.43;;;;;;;25.01;33.11;97347.19;4799979;29;20231;-71
2022/07/13 08:24:08;;;;;;;3.50;1.80;;;;;;;24.97;32.28;97348.47;4799083;29;20202;-71
2022/07/13 08:26:36;;;;;;;2.57;1.07;;;;;;;24.92;32.73;97350.72;4800263;29;20622;-71
2022/07/13 08:29:03;;;;;;;2.43;0.93;;;;;;;24.53;33.18;97363.38;4800108;29;20702;-71
2022/07/13 08:31:30;;;;;;;0.90;0.90;;;;;;;24.40;33.18;97338.25;4799360;29;20200;-71
2022/07/13 08:39:28;;;;;;;1.10;1.00;;;;;;;24.83;33.30;97352.47;4800266;29;20209;-71
2022/07/13 08:41:58;;;;;;;1.87;0.90;;;;;;;24.82;32.41;97348.16;4800093;29;20286;-71
2022/07/13 08:44:25;;;;;;;1.70;0.93;;;;;;;24.89;32.26;97357.16;4800143;29;20213;-71
2022/07/13 08:46:52;;;;;;;1.87;0.90;;;;;;;24.53;32.95;97350.13;4799840;29;20314;-70
2022/07/13 08:49:22;;;;;;;2.17;1.10;;;;;;;24.58;33.41;97349.69;4800075;29;20208;-71
2022/07/13 08:51:53;;;;;;;1.50;0.90;;;;;;;24.62;32.69;97354.56;4799365;29;20217;-70
2022/07/13 08:54:21;;;;;;;2.67;0.90;;;;;;;24.54;33.36;97345.69;4783520;29;20705;-71
2022/07/13 08:56:48;;;;;;;1.50;0.90;;;;;;;24.49;33.45;97361.16;4799597;29;20302;-71
2022/07/13 08:59:16;;;;;;;5.23;1.20;;;;;;;24.62;32.86;97333.34;4783569;29;20216;-71
2022/07/13 09:01:44;;;;;;;2.33;1.40;;;;;;;24.79;33.11;97340.50;4799808;29;20193;-70
2022/07/13 09:04:16;;;;;;;1.27;0.90;;;;;;;25.07;31.92;97335.97;4799455;29;20708;-71
2022/07/13 09:06:50;;;;;;;1.53;1.10;;;;;;;25.18;31.23;97335.75;4800141;29;20230;-71
2022/07/13 09:09:28;;;;;;;1.70;1.00;;;;;;;24.70;32.67;97337.91;4799211;29;20219;-71
2022/07/13 09:12:18;;;;;;;1.93;1.20;;;;;;;25.27;32.43;97336.63;4799471;29;20212;-72
2022/07/13 09:15:01;;;;;;;4.23;1.07;;;;;;;25.33;31.95;97333.34;4800057;29;20197;-71
2022/07/13 09:17:37;;;;;;;6.17;2.90;;;;;;;25.42;32.53;97353.69;4799055;29;20270;-71
2022/07/13 09:20:17;;;;;;;4.50;1.70;;;;;;;25.51;32.53;97340.31;4798777;29;20248;-70
2022/07/13 09:22:48;;;;;;;3.27;1.03;;;;;;;24.60;33.79;97326.53;4799369;29;20214;-71
2022/07/13 09:25:25;;;;;;;2.33;1.10;;;;;;;24.96;33.41;97342.34;4799540;29;20312;-70
2022/07/13 09:27:53;;;;;;;1.73;1.00;;;;;;;25.18;31.93;97338.41;4798125;29;20240;-71
2022/07/13 09:30:25;;;;;;;1.87;1.00;;;;;;;24.97;31.60;97340.53;4798963;29;20690;-70
2022/07/13 09:32:54;;;;;;;2.07;0.97;;;;;;;24.94;30.12;97328.41;4799611;29;20716;-72
2022/07/13 09:35:40;;;;;;;4.90;1.30;;;;;;;25.17;30.25;97342.03;4799385;29;20277;-71
2022/07/13 09:38:07;;;;;;;2.77;0.90;;;;;;;25.14;30.47;97345.00;4799359;29;20231;-71
2022/07/13 09:40:34;;;;;;;4.40;0.90;;;;;;;24.92;31.23;97340.13;4799225;29;20232;-70
2022/07/13 09:48:33;;;;;;;2.10;1.20;;;;;;;25.26;30.63;97325.19;4798694;29;20237;-71
2022/07/13 09:51:00;;;;;;;2.87;1.13;;;;;;;25.57;30.63;97337.06;4799219;29;20195;-71
2022/07/13 09:53:32;;;;;;;2.80;1.20;;;;;;;25.24;29.97;97327.19;4798970;29;20234;-71
2022/07/13 09:56:02;;;;;;;3.13;1.10;;;;;;;25.30;29.95;97334.50;4797592;29;20202;-71
2022/07/13 09:58:33;;;;;;;2.93;1.00;;;;;;;25.32;30.33;97327.25;4799626;29;20209;-71
2022/07/13 10:01:03;;;;;;;1.73;1.00;;;;;;;25.18;29.71;97345.50;4799025;29;20720;-71
2022/07/13 10:03:30;;;;;;;1.87;0.90;;;;;;;25.33;29.73;97331.53;4799273;29;20629;-72
2022/07/13 10:06:00;;;;;;;3.70;1.00;;;;;;;25.33;29.41;97318.28;4798817;29;20211;-70
2022/07/13 10:08:28;;;;;;;1.57;0.87;;;;;;;25.18;30.00;97325.13;4782689;29;20622;-71
2022/07/13 10:10:55;;;;;;;1.63;1.20;;;;;;;24.93;30.68;97315.31;4799659;29;20232;-71
2022/07/13 10:13:23;;;;;;;2.27;0.90;;;;;;;24.98;29.85;97299.75;4798698;29;20206;-70
2022/07/13 10:15:50;;;;;;;4.73;1.30;;;;;;;25.27;29.94;97326.84;4798895;29;20664;-70
2022/07/13 10:18:22;;;;;;;2.30;1.10;;;;;;;25.43;30.29;97292.53;4798522;29;20205;-73
2022/07/13 10:20:56;;;;;;;2.67;1.23;;;;;;;25.94;29.95;97309.41;4798571;29;20293;-71
2022/07/13 10:23:32;;;;;;;2.23;1.27;;;;;;;25.77;30.34;97313.81;4799169;29;20225;-71
2022/07/13 10:26:31;;;;;;;0.90;0.90;;;;;;;25.67;29.75;97319.22;4798787;29;20297;-72
2022/07/13 10:29:04;;;;;;;2.27;0.87;;;;;;;25.28;30.35;97299.38;4799707;29;20794;-71
2022/07/13 10:31:33;;;;;;;3.33;1.20;;;;;;;25.53;31.09;97301.19;4798679;29;20210;-72
2022/07/13 10:34:01;;;;;;;2.43;1.10;;;;;;;25.82;29.88;97285.78;4798707;29;20232;-71
2022/07/13 10:36:50;;;;;;;5.67;1.30;;;;;;;26.11;30.08;97304.03;4799184;29;20322;-71
2022/07/13 10:39:22;;;;;;;3.07;1.10;;;;;;;26.37;28.77;97301.31;4782106;29;20203;-72
2022/07/13 10:41:59;;;;;;;2.33;1.17;;;;;;;26.13;30.01;97302.06;4799033;29;20207;-71
2022/07/13 10:44:32;;;;;;;1.07;0.80;;;;;;;25.87;29.53;97303.91;4799140;29;20603;-70
2022/07/13 10:47:00;;;;;;;1.43;1.10;;;;;;;25.82;29.58;97296.41;4798539;29;20323;-71
2022/07/13 10:49:44;;;;;;;1.00;0.90;;;;;;;25.74;29.99;97290.22;4798962;29;20238;-71
2022/07/13 10:55:02;;;;;;;2.40;1.27;;;;;;;25.95;30.77;97274.75;4800679;29;20861;-71
2022/07/13 10:57:32;;;;;;;2.20;0.90;;;;;;;26.25;29.04;97273.41;4801763;29;20287;-70
2022/07/13 11:00:07;;;;;;;2.37;1.13;;;;;;;26.50;28.61;97272.47;4802012;29;20207;-71
2022/07/13 11:02:49;;;;;;;2.60;1.00;;;;;;;26.11;29.05;97266.06;4802046;29;20686;-71
2022/07/13 11:05:26;;;;;;;3.87;1.00;;;;;;;26.05;29.58;97269.31;4801800;29;20225;-70
2022/07/13 11:07:54;;;;;;;1.97;0.90;;;;;;;25.73;29.65;97265.53;4802411;29;20286;-70
2022/07/13 11:10:22;;;;;;;2.87;0.90;;;;;;;26.17;29.13;97258.25;4801733;29;20198;-71
2022/07/13 11:13:03;;;;;;;7.03;1.30;;;;;;;26.22;27.92;97276.38;4801453;29;20206;-71
2022/07/13 11:15:46;;;;;;;1.47;0.70;;;;;;;25.82;27.16;97280.47;4800982;29;20263;-70
2022/07/13 11:18:22;;;;;;;0.80;0.73;;;;;;;26.01;25.94;97260.00;4801358;29;20207;-70
2022/07/13 11:20:59;;;;;;;1.57;0.93;;;;;;;26.41;27.77;97262.81;4801775;29;20207;-72
2022/07/13 11:26:52;;;;;;;1.87;1.10;;;;;;;26.52;27.66;97273.16;4801611;29;20199;-71
2022/07/13 11:29:44;;;;;;;1.57;0.90;;;;;;;26.37;27.44;97256.16;4801821;29;20238;-71
2022/07/13 11:32:11;;;;;;;1.87;0.90;;;;;;;26.47;27.83;97256.84;4784657;29;20604;-71
2022/07/13 11:34:38;;;;;;;3.57;1.00;;;;;;;26.39;28.62;97260.31;4801383;29;20202;-76
2022/07/13 11:37:05;;;;;;;3.10;1.03;;;;;;;26.74;27.22;97266.38;4802050;29;20205;-75
2022/07/13 11:39:34;;;;;;;1.70;1.00;;;;;;;26.69;27.66;97263.38;4784830;29;20225;-76
2022/07/13 11:42:05;;;;;;;4.87;1.20;;;;;;;26.90;26.73;97253.94;4801745;29;20756;-75
2022/07/13 11:44:34;;;;;;;1.60;1.10;;;;;;;27.16;27.21;97265.22;4801637;29;20203;-76
2022/07/13 11:47:06;;;;;;;2.53;1.00;;;;;;;26.92;27.39;97273.22;4801723;29;20678;-71
2022/07/13 11:49:45;;;;;;;3.27;1.23;;;;;;;26.78;27.52;97265.91;4801079;29;20281;-71
2022/07/13 11:52:26;;;;;;;2.47;1.17;;;;;;;26.56;27.24;97256.69;4784512;29;20202;-71
2022/07/13 11:55:05;;;;;;;4.60;1.30;;;;;;;26.50;27.42;97240.59;4800913;29;20825;-71
2022/07/13 11:57:33;;;;;;;1.80;0.93;;;;;;;26.53;28.39;97266.81;4800332;29;20202;-71
2022/07/13 12:00:06;;;;;;;1.93;0.90;;;;;;;26.22;28.00;97268.41;4801062;29;20259;-71
2022/07/13 12:02:40;;;;;;;1.03;0.90;;;;;;;26.19;28.12;97247.50;4800934;29;20305;-71